Time;durP1;ratioP1;P1;durP2;ratioP2;P2;SDS_P1;SDS_P2;PMS_P1;PMS_P2;Temp;Humidity;BMP_temperature;BMP_pressure;BME280_temperature;BME280_humidity;BME280_pressure;Samples;Min_cycle;Max_cycle;Signal;HPM_P1;HPM_P2
2021/03/18 00:01:36;;;;;;;16.30;9.27;;;6.00;54.00;;;;;;5116275;28;20032;-67
2021/03/18 00:04:16;;;;;;;14.00;8.73;;;6.00;54.20;;;;;;5115781;28;20092;-67
2021/03/18 00:06:42;;;;;;;14.67;9.20;;;6.00;54.30;;;;;;5116219;28;20027;-79
2021/03/18 00:09:10;;;;;;;15.83;9.43;;;6.00;54.20;;;;;;5116244;28;20019;-66
2021/03/18 00:11:40;;;;;;;15.67;9.83;;;5.90;53.70;;;;;;5115891;28;20517;-81
2021/03/18 00:14:08;;;;;;;21.00;9.57;;;5.80;54.20;;;;;;5116077;28;20038;-80
2021/03/18 00:16:35;;;;;;;15.40;9.37;;;5.80;54.30;;;;;;5116134;27;20024;-67
2021/03/18 00:19:01;;;;;;;15.20;8.83;;;5.80;54.60;;;;;;5115676;28;20490;-67
2021/03/18 00:21:27;;;;;;;16.37;9.27;;;5.80;54.80;;;;;;5115782;28;20110;-66
2021/03/18 00:23:53;;;;;;;15.77;9.83;;;5.80;54.90;;;;;;5115826;28;20039;-66
2021/03/18 00:26:25;;;;;;;16.03;9.93;;;5.80;55.90;;;;;;5115798;28;20031;-66
2021/03/18 00:28:52;;;;;;;16.15;9.88;;;5.80;56.60;;;;;;5115672;28;20440;-66
2021/03/18 00:31:31;;;;;;;14.27;9.27;;;5.50;54.50;;;;;;5115543;28;20062;-66
2021/03/18 00:33:58;;;;;;;15.40;9.20;;;5.40;55.10;;;;;;5115670;28;20161;-67
2021/03/18 00:36:25;;;;;;;18.23;10.00;;;5.40;56.10;;;;;;5115399;28;20020;-67
2021/03/18 00:38:52;;;;;;;16.23;9.80;;;5.40;55.80;;;;;;5115540;28;20024;-66
2021/03/18 00:41:18;;;;;;;15.80;10.17;;;5.40;56.20;;;;;;5115462;28;20024;-67
2021/03/18 00:43:43;;;;;;;13.80;8.43;;;5.40;55.80;;;;;;5115666;28;20114;-66
2021/03/18 00:46:09;;;;;;;15.47;9.60;;;5.30;55.20;;;;;;5115287;28;20054;-66
2021/03/18 00:48:36;;;;;;;14.37;8.67;;;5.30;55.30;;;;;;5113974;28;20384;-66
2021/03/18 00:51:07;;;;;;;12.93;8.13;;;5.20;55.90;;;;;;5115128;28;20020;-66
2021/03/18 00:53:37;;;;;;;11.97;7.63;;;5.20;56.30;;;;;;5115306;28;20027;-66
2021/03/18 00:56:11;;;;;;;12.87;7.90;;;5.20;56.20;;;;;;5115118;28;20365;-67
2021/03/18 00:58:37;;;;;;;12.33;7.60;;;5.30;56.00;;;;;;5115116;28;20024;-66
2021/03/18 01:01:04;;;;;;;14.23;8.03;;;5.30;56.00;;;;;;5115264;28;20030;-66
2021/03/18 01:03:32;;;;;;;16.20;7.53;;;5.30;55.20;;;;;;5114941;28;20019;-67
2021/03/18 01:06:08;;;;;;;11.73;6.50;;;5.30;56.40;;;;;;5114895;28;20114;-66
2021/03/18 01:08:35;;;;;;;11.30;7.07;;;5.30;56.00;;;;;;5114984;28;20026;-66
2021/03/18 01:11:10;;;;;;;8.77;6.37;;;5.30;55.50;;;;;;5114693;28;20028;-66
2021/03/18 01:13:37;;;;;;;9.57;5.87;;;5.30;55.70;;;;;;5114906;28;20032;-66
2021/03/18 01:16:07;;;;;;;10.33;4.90;;;5.30;55.60;;;;;;5114052;28;20099;-67
2021/03/18 01:18:54;;;;;;;7.90;4.70;;;5.30;55.30;;;;;;5114747;28;20081;-66
2021/03/18 01:21:24;;;;;;;8.20;4.93;;;5.40;54.70;;;;;;5114478;28;20475;-66
2021/03/18 01:23:49;;;;;;;8.40;4.87;;;5.40;54.30;;;;;;5114752;28;20085;-67
2021/03/18 01:26:16;;;;;;;8.60;5.53;;;5.40;53.80;;;;;;5114726;28;20410;-66
2021/03/18 01:28:42;;;;;;;10.07;5.63;;;5.40;53.60;;;;;;5114376;28;20154;-66
2021/03/18 01:31:10;;;;;;;9.90;6.30;;;5.30;53.70;;;;;;5114020;28;20039;-66
2021/03/18 01:33:36;;;;;;;12.07;6.07;;;5.30;54.00;;;;;;5114444;28;20091;-66
2021/03/18 01:36:02;;;;;;;9.47;6.60;;;5.20;54.20;;;;;;5114589;28;20026;-66
2021/03/18 01:38:29;;;;;;;10.60;6.27;;;5.20;54.70;;;;;;5114441;28;20020;-67
2021/03/18 01:40:55;;;;;;;11.40;7.13;;;5.10;55.00;;;;;;5114129;28;20024;-66
2021/03/18 01:43:22;;;;;;;13.93;7.07;;;5.10;55.00;;;;;;5114413;28;20487;-66
2021/03/18 01:45:48;;;;;;;13.17;7.83;;;5.10;55.10;;;;;;5114259;28;20043;-66
2021/03/18 01:48:14;;;;;;;14.13;7.60;;;5.00;54.90;;;;;;5114356;28;20445;-66
2021/03/18 01:50:40;;;;;;;13.43;7.37;;;5.00;55.00;;;;;;5114348;28;20111;-66
2021/03/18 01:53:06;;;;;;;12.17;8.07;;;5.00;55.40;;;;;;5114471;28;20490;-67
2021/03/18 01:55:41;;;;;;;14.20;8.17;;;4.90;55.40;;;;;;5113831;28;20023;-66
2021/03/18 01:58:07;;;;;;;13.93;8.43;;;4.90;55.60;;;;;;5113135;28;20063;-67
2021/03/18 02:00:36;;;;;;;11.60;7.27;;;4.90;55.80;;;;;;5111055;28;20121;-66
2021/03/18 02:03:02;;;;;;;14.67;7.20;;;4.80;56.30;;;;;;5111132;28;20060;-66
2021/03/18 02:05:29;;;;;;;12.90;7.77;;;4.90;56.10;;;;;;5113022;28;20023;-66
2021/03/18 02:07:56;;;;;;;12.60;7.93;;;4.90;56.60;;;;;;5113435;28;20073;-66
2021/03/18 02:10:24;;;;;;;12.73;7.33;;;4.90;56.50;;;;;;5113735;28;20509;-67
2021/03/18 02:12:50;;;;;;;12.27;7.30;;;4.80;56.60;;;;;;5113310;28;20039;-67
2021/03/18 02:15:17;;;;;;;17.07;7.57;;;4.80;56.50;;;;;;5113784;28;20031;-66
2021/03/18 02:17:49;;;;;;;11.13;7.83;;;4.80;56.30;;;;;;5113762;28;20053;-66
2021/03/18 02:20:52;;;;;;;13.77;7.65;;;4.80;56.40;;;;;;5113297;28;20012;-66
2021/03/18 02:23:55;;;;;;;11.65;7.25;;;4.80;56.50;;;;;;5113710;28;20111;-67
2021/03/18 02:26:50;;;;;;;13.60;7.70;;;4.70;56.70;;;;;;5113480;28;20028;-67
2021/03/18 02:29:46;;;;;;;14.63;7.67;;;4.70;56.60;;;;;;5113193;28;20038;-66
2021/03/18 02:32:30;;;;;;;13.00;7.60;;;4.70;56.90;;;;;;5113432;28;20050;-66
2021/03/18 02:35:24;;;;;;;13.53;7.67;;;4.70;57.10;;;;;;5113604;28;20024;-66
2021/03/18 02:38:08;;;;;;;12.50;8.13;;;4.60;57.30;;;;;;5113574;28;20047;-66
2021/03/18 02:40:38;;;;;;;15.57;8.10;;;4.60;57.60;;;;;;5113451;28;20027;-66
2021/03/18 02:43:13;;;;;;;12.30;7.80;;;4.60;57.60;;;;;;5113266;28;20036;-67
2021/03/18 02:45:46;;;;;;;12.30;7.50;;;4.60;57.60;;;;;;5113311;28;20090;-67
2021/03/18 02:48:20;;;;;;;12.73;7.90;;;4.60;57.60;;;;;;5113131;28;20111;-66
2021/03/18 02:50:47;;;;;;;14.00;7.83;;;4.50;57.40;;;;;;5113331;28;20024;-66
2021/03/18 02:53:17;;;;;;;14.90;8.93;;;4.50;57.30;;;;;;5113238;28;20035;-66
2021/03/18 02:55:45;;;;;;;15.40;10.03;;;4.50;57.00;;;;;;5113064;28;20386;-66
2021/03/18 02:58:19;;;;;;;17.20;9.13;;;4.50;57.00;;;;;;5112790;28;20036;-66
2021/03/18 03:00:47;;;;;;;19.23;9.17;;;4.50;57.00;;;;;;5113264;28;20471;-66
2021/03/18 03:03:15;;;;;;;18.50;9.13;;;4.50;57.30;;;;;;5113313;28;20038;-66
2021/03/18 03:05:42;;;;;;;15.20;9.07;;;4.40;57.70;;;;;;5113252;28;20046;-66
2021/03/18 03:08:09;;;;;;;13.73;8.17;;;4.40;57.90;;;;;;5112982;28;20086;-67
2021/03/18 03:10:36;;;;;;;16.53;9.30;;;4.50;58.10;;;;;;5113028;28;20020;-66
2021/03/18 03:13:03;;;;;;;13.63;8.67;;;4.40;58.30;;;;;;5112903;28;20027;-66
2021/03/18 03:15:32;;;;;;;16.77;9.00;;;4.40;58.60;;;;;;5113105;28;20103;-66
2021/03/18 03:18:02;;;;;;;12.47;8.33;;;4.50;58.30;;;;;;5113078;28;20111;-66
2021/03/18 03:20:28;;;;;;;17.17;8.57;;;4.40;58.20;;;;;;5113154;28;20471;-66
2021/03/18 03:22:55;;;;;;;14.33;7.87;;;4.40;58.00;;;;;;5113032;28;20084;-66
2021/03/18 03:25:22;;;;;;;14.90;8.20;;;4.50;58.20;;;;;;5112717;28;20070;-66
2021/03/18 03:27:49;;;;;;;12.10;7.43;;;4.50;58.80;;;;;;5112842;28;20388;-66
2021/03/18 03:30:15;;;;;;;14.77;8.20;;;4.50;58.70;;;;;;5112988;28;20480;-66
2021/03/18 03:32:46;;;;;;;12.83;7.50;;;4.60;58.70;;;;;;5112506;28;20420;-66
2021/03/18 03:35:14;;;;;;;10.30;6.80;;;4.60;58.90;;;;;;5113197;28;20407;-66
2021/03/18 03:37:40;;;;;;;13.10;7.10;;;4.60;58.70;;;;;;5112744;28;20027;-67
2021/03/18 03:40:08;;;;;;;11.23;6.63;;;4.60;58.80;;;;;;5115608;28;20095;-66
2021/03/18 03:42:34;;;;;;;11.80;5.97;;;4.60;58.90;;;;;;5116607;28;20488;-66
2021/03/18 03:45:00;;;;;;;12.53;6.40;;;4.60;59.20;;;;;;5116597;28;20391;-66
2021/03/18 03:47:26;;;;;;;9.73;5.70;;;4.60;58.70;;;;;;5116505;28;20106;-74
2021/03/18 03:49:52;;;;;;;12.23;6.07;;;4.60;58.40;;;;;;5116348;28;20464;-66
2021/03/18 03:52:38;;;;;;;11.70;5.87;;;4.60;58.30;;;;;;5116418;27;20093;-66
2021/03/18 03:55:07;;;;;;;10.17;5.70;;;4.70;58.30;;;;;;5116390;28;20055;-66
2021/03/18 03:57:48;;;;;;;10.50;5.63;;;4.70;58.20;;;;;;5116433;28;20357;-67
2021/03/18 04:00:15;;;;;;;10.47;6.40;;;4.70;58.20;;;;;;5116517;28;20409;-66
2021/03/18 04:02:42;;;;;;;9.90;6.37;;;4.70;58.20;;;;;;5116112;28;20058;-66
2021/03/18 04:05:09;;;;;;;9.37;5.90;;;4.70;58.00;;;;;;5116056;28;20016;-66
2021/03/18 04:07:37;;;;;;;11.03;5.73;;;4.60;58.00;;;;;;5116140;28;20032;-66
2021/03/18 04:10:04;;;;;;;10.47;5.60;;;4.60;58.40;;;;;;5116228;27;20047;-66
2021/03/18 04:12:39;;;;;;;9.80;4.93;;;4.60;58.50;;;;;;5116018;28;20119;-66
2021/03/18 04:15:11;;;;;;;6.77;3.90;;;4.60;58.80;;;;;;5116069;28;20053;-66
2021/03/18 04:17:40;;;;;;;6.30;3.30;;;4.60;58.80;;;;;;5115912;28;20515;-66
2021/03/18 04:20:09;;;;;;;6.03;2.80;;;4.60;58.60;;;;;;5116026;28;20058;-66
2021/03/18 04:22:36;;;;;;;6.97;3.50;;;4.60;58.00;;;;;;5115901;28;20031;-66
2021/03/18 04:25:04;;;;;;;9.23;4.27;;;4.60;57.80;;;;;;5115994;28;20422;-66
2021/03/18 04:27:31;;;;;;;9.57;3.87;;;4.50;57.70;;;;;;5115347;28;20148;-67
2021/03/18 04:30:02;;;;;;;8.27;3.97;;;4.50;57.70;;;;;;5115509;28;20036;-66
2021/03/18 04:32:28;;;;;;;11.00;3.50;;;4.60;57.70;;;;;;5115580;28;20051;-66
2021/03/18 04:34:55;;;;;;;15.43;3.70;;;4.50;57.50;;;;;;5115950;28;20031;-66
2021/03/18 04:37:21;;;;;;;15.70;4.60;;;4.60;58.10;;;;;;5115556;28;20062;-66
2021/03/18 04:39:47;;;;;;;11.10;4.57;;;4.60;57.60;;;;;;5115531;28;20035;-66
2021/03/18 04:42:15;;;;;;;10.40;4.60;;;4.60;58.10;;;;;;5115635;28;20030;-66
2021/03/18 04:44:45;;;;;;;14.70;6.53;;;4.60;58.00;;;;;;5115835;28;20077;-66
2021/03/18 04:47:21;;;;;;;16.27;7.20;;;4.60;57.70;;;;;;5113932;28;20027;-66
2021/03/18 04:49:47;;;;;;;10.93;6.43;;;4.50;57.90;;;;;;5112627;28;20066;-67
2021/03/18 04:52:15;;;;;;;11.80;7.10;;;4.50;58.30;;;;;;5112912;28;20463;-66
2021/03/18 04:54:41;;;;;;;13.87;7.90;;;4.40;58.80;;;;;;5115318;28;20054;-66
2021/03/18 04:57:08;;;;;;;13.43;7.53;;;4.40;58.90;;;;;;5115178;28;20023;-66
2021/03/18 04:59:36;;;;;;;16.37;7.63;;;4.30;58.60;;;;;;5114965;28;20019;-66
2021/03/18 05:02:03;;;;;;;13.07;6.80;;;4.30;58.60;;;;;;5115247;28;20062;-66
2021/03/18 05:04:32;;;;;;;15.00;8.07;;;4.30;58.90;;;;;;5115074;28;20019;-66
2021/03/18 05:06:58;;;;;;;11.67;7.43;;;4.30;59.00;;;;;;5114847;28;20434;-66
2021/03/18 05:09:24;;;;;;;13.63;7.60;;;4.20;59.10;;;;;;5114814;28;20026;-67
2021/03/18 05:11:54;;;;;;;14.50;7.70;;;4.20;59.20;;;;;;5114758;28;20399;-66
2021/03/18 05:14:22;;;;;;;14.93;7.33;;;4.10;59.20;;;;;;5115036;28;20027;-66
2021/03/18 05:16:49;;;;;;;12.40;7.03;;;4.10;59.70;;;;;;5114969;28;20111;-66
2021/03/18 05:19:16;;;;;;;10.83;6.70;;;4.10;59.80;;;;;;5114539;28;20020;-79
2021/03/18 05:21:47;;;;;;;11.47;6.93;;;4.10;60.50;;;;;;5114646;28;20043;-67
2021/03/18 05:24:13;;;;;;;13.97;7.70;;;4.10;60.40;;;;;;5115009;28;20077;-66
2021/03/18 05:26:43;;;;;;;9.23;5.63;;;4.00;60.20;;;;;;5114768;28;20020;-66
2021/03/18 05:29:11;;;;;;;15.93;7.07;;;4.00;60.10;;;;;;5114386;27;20138;-66
2021/03/18 05:31:36;;;;;;;13.50;6.60;;;4.00;60.40;;;;;;5113917;28;20560;-66
2021/03/18 05:34:03;;;;;;;15.57;7.03;;;4.00;60.00;;;;;;5114394;28;20102;-66
2021/03/18 05:36:29;;;;;;;17.97;8.00;;;3.90;59.80;;;;;;5114371;27;20024;-66
2021/03/18 05:38:55;;;;;;;19.40;7.33;;;3.90;59.70;;;;;;5114533;28;20016;-67
2021/03/18 05:41:21;;;;;;;17.90;7.40;;;3.90;59.90;;;;;;5114342;27;20020;-66
2021/03/18 05:43:48;;;;;;;20.30;6.80;;;3.90;60.00;;;;;;5114386;28;20055;-66
2021/03/18 05:46:17;;;;;;;12.03;6.87;;;3.90;60.50;;;;;;5114216;28;20441;-66
2021/03/18 05:48:47;;;;;;;17.03;7.03;;;3.90;60.80;;;;;;5113963;28;20034;-66
2021/03/18 05:51:15;;;;;;;12.40;6.53;;;3.90;60.90;;;;;;5114095;28;20024;-67
2021/03/18 05:53:44;;;;;;;16.03;7.47;;;4.00;60.90;;;;;;5114231;28;20023;-66
2021/03/18 05:56:15;;;;;;;14.23;7.07;;;3.90;60.30;;;;;;5113962;28;20031;-66
2021/03/18 05:58:41;;;;;;;11.67;6.50;;;3.90;60.80;;;;;;5113811;28;20088;-67
2021/03/18 06:01:08;;;;;;;13.90;7.07;;;3.90;61.00;;;;;;5113635;28;20055;-67
2021/03/18 06:03:34;;;;;;;16.57;7.50;;;3.90;61.10;;;;;;5113638;28;20020;-66
2021/03/18 06:06:02;;;;;;;11.63;6.20;;;3.90;61.10;;;;;;5114076;28;20028;-66
2021/03/18 06:08:28;;;;;;;11.27;6.37;;;3.90;61.40;;;;;;5113697;28;20055;-80
2021/03/18 06:10:54;;;;;;;15.07;6.00;;;3.90;61.50;;;;;;5113702;28;20066;-67
2021/03/18 06:13:20;;;;;;;13.23;6.40;;;4.00;61.20;;;;;;5113553;28;20040;-66
2021/03/18 06:15:45;;;;;;;12.97;6.43;;;4.00;61.10;;;;;;5114020;28;20068;-66
2021/03/18 06:18:12;;;;;;;13.67;5.83;;;4.00;61.30;;;;;;5113706;28;20118;-66
2021/03/18 06:20:37;;;;;;;10.77;5.43;;;4.00;61.40;;;;;;5113799;28;20027;-67
2021/03/18 06:23:09;;;;;;;13.33;5.47;;;4.10;61.20;;;;;;5113578;28;20038;-66
2021/03/18 06:25:37;;;;;;;14.67;5.30;;;4.10;60.90;;;;;;5113805;28;20035;-79
2021/03/18 06:28:26;;;;;;;13.53;5.93;;;4.20;60.90;;;;;;5113476;28;20019;-66
2021/03/18 06:31:11;;;;;;;17.60;6.00;;;4.20;60.80;;;;;;5113509;28;20031;-66
2021/03/18 06:33:40;;;;;;;16.20;4.67;;;4.30;60.40;;;;;;5113377;28;20039;-67
2021/03/18 06:36:33;;;;;;;11.40;5.27;;;4.30;60.30;;;;;;5113493;28;20043;-76
2021/03/18 06:39:07;;;;;;;9.32;3.88;;;4.30;60.30;;;;;;5113263;28;20041;-67
2021/03/18 06:41:36;;;;;;;15.17;4.27;;;4.40;59.60;;;;;;5113584;28;20031;-66
2021/03/18 06:44:17;;;;;;;7.77;4.40;;;4.50;59.20;;;;;;5113615;28;20024;-66
2021/03/18 06:46:43;;;;;;;12.07;4.30;;;4.50;59.30;;;;;;5110475;28;20030;-67
2021/03/18 06:49:13;;;;;;;10.73;4.30;;;4.60;59.40;;;;;;5093078;28;20043;-67
2021/03/18 06:51:42;;;;;;;12.10;4.83;;;4.70;58.70;;;;;;5092877;28;20480;-67
2021/03/18 06:54:21;;;;;;;9.37;4.80;;;4.80;58.20;;;;;;5093215;28;20056;-80
2021/03/18 06:56:57;;;;;;;11.10;4.60;;;4.80;57.80;;;;;;5092906;28;20081;-80
2021/03/18 06:59:25;;;;;;;9.80;4.53;;;4.90;57.20;;;;;;5092847;28;20043;-67
2021/03/18 07:02:10;;;;;;;10.80;5.03;;;5.00;56.60;;;;;;5112263;28;20031;-67
2021/03/18 07:04:40;;;;;;;7.00;4.40;;;5.10;56.30;;;;;;5113449;28;20015;-67
2021/03/18 07:07:07;;;;;;;8.27;4.10;;;5.20;55.80;;;;;;5113347;28;20027;-67
2021/03/18 07:09:36;;;;;;;11.23;3.97;;;5.30;55.50;;;;;;5113269;28;20384;-67
2021/03/18 07:12:07;;;;;;;8.87;4.60;;;5.30;55.30;;;;;;5113290;28;20028;-67
2021/03/18 07:14:35;;;;;;;7.50;3.73;;;5.40;55.20;;;;;;5115572;28;20060;-67
2021/03/18 07:17:02;;;;;;;7.63;4.13;;;5.50;54.80;;;;;;5117224;28;20091;-67
2021/03/18 07:19:29;;;;;;;9.80;4.30;;;5.60;54.30;;;;;;5117091;28;20077;-67
2021/03/18 07:21:56;;;;;;;9.30;4.37;;;5.70;54.10;;;;;;5116996;28;20110;-67
2021/03/18 07:24:21;;;;;;;8.73;4.30;;;5.80;54.00;;;;;;5112135;28;20028;-67
2021/03/18 07:26:48;;;;;;;15.03;5.93;;;5.90;53.90;;;;;;5096872;28;20039;-67
2021/03/18 07:29:21;;;;;;;13.93;6.80;;;6.00;54.20;;;;;;5096772;28;20091;-67
2021/03/18 07:31:49;;;;;;;14.90;6.50;;;6.00;55.30;;;;;;5096332;28;20048;-66
2021/03/18 07:34:15;;;;;;;16.33;5.93;;;6.10;55.50;;;;;;5093501;28;20427;-67
2021/03/18 07:36:43;;;;;;;13.17;5.67;;;6.20;55.80;;;;;;5093617;28;20066;-67
2021/03/18 07:39:09;;;;;;;17.67;4.70;;;6.30;55.90;;;;;;5094439;28;20534;-66
2021/03/18 07:41:35;;;;;;;7.87;3.43;;;6.40;55.60;;;;;;5096156;28;20093;-67
2021/03/18 07:44:02;;;;;;;12.20;4.00;;;6.40;54.90;;;;;;5096437;28;20441;-66
2021/03/18 07:46:30;;;;;;;12.07;3.50;;;6.50;54.00;;;;;;5096237;28;20095;-66
2021/03/18 07:49:03;;;;;;;10.00;3.27;;;6.60;53.60;;;;;;5095671;28;20032;-67
2021/03/18 07:51:31;;;;;;;14.33;3.53;;;6.70;53.40;;;;;;5096046;28;20571;-67
2021/03/18 07:53:59;;;;;;;10.77;3.50;;;6.80;52.60;;;;;;5096057;28;20036;-66
2021/03/18 07:56:26;;;;;;;16.83;4.17;;;6.80;52.30;;;;;;5095786;28;20051;-66
2021/03/18 07:58:53;;;;;;;18.53;3.87;;;6.90;52.10;;;;;;5093777;28;20024;-67
2021/03/18 08:01:28;;;;;;;12.63;4.00;;;7.00;52.60;;;;;;5093354;28;20032;-67
2021/03/18 08:03:54;;;;;;;12.30;4.20;;;7.00;51.70;;;;;;5094610;28;20480;-75
2021/03/18 08:06:44;;;;;;;14.13;4.40;;;7.10;51.60;;;;;;5095779;28;20019;-79
2021/03/18 08:09:17;;;;;;;16.97;4.03;;;7.20;51.70;;;;;;5083110;28;20412;-79
2021/03/18 08:11:46;;;;;;;6.70;3.67;;;7.30;51.30;;;;;;5095040;28;20024;-78
2021/03/18 08:14:17;;;;;;;7.47;3.13;;;7.40;50.90;;;;;;5095244;28;20447;-77
2021/03/18 08:16:43;;;;;;;16.67;3.67;;;7.50;50.80;;;;;;5104724;28;20008;-80
2021/03/18 08:19:11;;;;;;;17.83;4.43;;;7.60;50.20;;;;;;5115478;28;20063;-79
2021/03/18 08:21:47;;;;;;;12.30;3.57;;;7.60;49.40;;;;;;5115525;28;20015;-84
2021/03/18 08:24:25;;;;;;;12.50;4.07;;;7.70;49.10;;;;;;5115143;28;20027;-78
2021/03/18 08:26:58;;;;;;;19.07;3.83;;;7.80;49.30;;;;;;5115141;28;20028;-68
2021/03/18 08:29:25;;;;;;;;;;;7.90;49.70;;;;;;5116089;28;20035;-67
2021/03/18 08:31:53;;;;;;;6.63;2.80;;;8.00;49.60;;;;;;5115506;28;19992;-67
2021/03/18 08:34:40;;;;;;;11.00;2.70;;;8.10;49.00;;;;;;5115927;28;20050;-79
2021/03/18 08:37:06;;;;;;;6.33;3.23;;;8.20;48.40;;;;;;5114994;28;20472;-67
2021/03/18 08:39:41;;;;;;;4.93;2.57;;;8.30;48.10;;;;;;5113554;28;20058;-68
2021/03/18 08:42:29;;;;;;;4.30;2.40;;;8.40;47.50;;;;;;5114864;28;20043;-67
2021/03/18 08:44:56;;;;;;;3.47;2.07;;;8.50;46.00;;;;;;5114739;28;20020;-67
2021/03/18 08:47:38;;;;;;;3.40;2.07;;;8.50;45.90;;;;;;5115522;28;20035;-67
2021/03/18 08:50:13;;;;;;;3.50;2.10;;;8.60;45.30;;;;;;5115542;28;20020;-67
2021/03/18 08:52:43;;;;;;;5.17;1.80;;;8.70;45.00;;;;;;5115239;28;20035;-67
2021/03/18 08:55:11;;;;;;;2.73;1.40;;;8.80;44.90;;;;;;5115286;28;20020;-67
2021/03/18 08:57:39;;;;;;;3.53;1.17;;;8.80;43.50;;;;;;5115156;28;20020;-65
2021/03/18 09:00:07;;;;;;;3.03;1.20;;;8.90;42.20;;;;;;5115336;28;20016;-65
2021/03/18 09:02:38;;;;;;;1.40;0.70;;;8.90;41.50;;;;;;5114836;28;20032;-65
2021/03/18 09:05:09;;;;;;;1.17;0.60;;;9.00;40.30;;;;;;5115140;28;20098;-65
2021/03/18 09:07:35;;;;;;;2.13;0.70;;;9.10;40.20;;;;;;5113363;28;20463;-65
2021/03/18 09:10:06;;;;;;;3.83;1.10;;;9.20;40.30;;;;;;5114442;28;20020;-65
2021/03/18 09:12:51;;;;;;;2.00;0.90;;;9.30;39.70;;;;;;5114762;28;20039;-65
2021/03/18 09:15:34;;;;;;;5.17;1.03;;;9.30;38.00;;;;;;5114899;28;20039;-67
2021/03/18 09:18:20;;;;;;;1.48;0.95;;;9.50;37.80;;;;;;5114944;28;20047;-65
2021/03/18 09:20:59;;;;;;;4.40;2.40;;;9.50;37.70;;;;;;5114235;28;20487;-66
2021/03/18 09:23:28;;;;;;;2.23;1.20;;;9.60;37.80;;;;;;5114903;28;20438;-66
2021/03/18 09:25:57;;;;;;;1.93;1.20;;;9.70;38.00;;;;;;5114900;28;20015;-66
2021/03/18 09:28:24;;;;;;;2.80;1.87;;;9.80;38.40;;;;;;5114229;28;20069;-66
2021/03/18 09:30:56;;;;;;;3.80;2.97;;;9.90;38.10;;;;;;5114856;28;20055;-66
2021/03/18 09:33:36;;;;;;;2.63;0.90;;;9.90;37.40;;;;;;5114466;28;20065;-66
2021/03/18 09:36:14;;;;;;;2.07;0.90;;;10.00;35.80;;;;;;5114292;28;20030;-66
2021/03/18 09:38:40;;;;;;;2.53;0.90;;;10.10;35.70;;;;;;5114179;28;20038;-66
2021/03/18 09:41:07;;;;;;;2.17;1.03;;;10.10;35.70;;;;;;5114485;28;20028;-66
2021/03/18 09:43:33;;;;;;;2.00;0.90;;;10.20;34.80;;;;;;5114399;28;20035;-66
2021/03/18 09:45:58;;;;;;;3.57;0.90;;;10.20;35.20;;;;;;5114468;28;20116;-66
2021/03/18 09:48:33;;;;;;;1.43;0.70;;;10.30;35.00;;;;;;5114251;28;20055;-66
2021/03/18 09:51:05;;;;;;;1.57;0.70;;;10.30;34.60;;;;;;5114482;28;20035;-82
2021/03/18 09:53:31;;;;;;;1.40;1.02;;;10.40;33.70;;;;;;5114332;28;20032;-66
2021/03/18 09:56:05;;;;;;;1.87;0.90;;;10.40;34.40;;;;;;5113774;28;20371;-66
2021/03/18 09:58:31;;;;;;;1.37;0.70;;;10.60;34.90;;;;;;5113941;28;20038;-66
2021/03/18 10:00:57;;;;;;;1.50;1.03;;;10.60;34.40;;;;;;5114033;28;20028;-66
2021/03/18 10:03:22;;;;;;;1.90;0.87;;;10.70;31.10;;;;;;5111033;28;20039;-66
2021/03/18 10:05:48;;;;;;;1.40;1.03;;;10.70;32.80;;;;;;5111255;28;20031;-66
2021/03/18 10:08:14;;;;;;;1.70;1.10;;;10.70;33.60;;;;;;5111968;28;20031;-66
2021/03/18 10:10:40;;;;;;;1.40;0.90;;;10.70;33.30;;;;;;5113579;28;20019;-66
2021/03/18 10:13:05;;;;;;;1.37;0.90;;;10.60;32.50;;;;;;5113642;28;20079;-65
2021/03/18 10:15:33;;;;;;;1.40;1.00;;;10.60;33.00;;;;;;5113644;28;20028;-66
2021/03/18 10:17:59;;;;;;;1.40;0.90;;;10.50;33.30;;;;;;5113283;28;20028;-66
2021/03/18 10:20:32;;;;;;;2.17;0.90;;;10.40;33.70;;;;;;5112313;28;20027;-68
2021/03/18 10:23:05;;;;;;;1.70;1.10;;;10.40;34.00;;;;;;5111794;28;20031;-70
2021/03/18 10:25:35;;;;;;;2.13;0.93;;;10.40;35.10;;;;;;5113231;28;20030;-69
2021/03/18 10:28:05;;;;;;;2.17;1.20;;;10.40;35.30;;;;;;5112688;28;20024;-72
2021/03/18 10:30:32;;;;;;;2.23;1.20;;;10.50;35.10;;;;;;5113759;28;20079;-70
2021/03/18 10:33:27;;;;;;;4.30;1.03;;;10.60;33.40;;;;;;5112771;28;20415;-81
2021/03/18 10:35:53;;;;;;;2.10;0.93;;;10.70;33.40;;;;;;5091095;28;20092;-67
2021/03/18 10:38:30;;;;;;;3.67;1.00;;;10.90;32.50;;;;;;5093008;28;20035;-66
2021/03/18 10:40:58;;;;;;;2.50;0.80;;;11.00;34.20;;;;;;5093231;28;20051;-67
2021/03/18 10:43:33;;;;;;;1.80;1.20;;;11.10;32.60;;;;;;5093181;28;20463;-68
2021/03/18 10:46:02;;;;;;;4.53;1.03;;;11.20;33.30;;;;;;5093007;28;20070;-67
2021/03/18 10:48:30;;;;;;;1.95;1.10;;;11.20;33.90;;;;;;5094440;28;20495;-67
2021/03/18 10:51:12;;;;;;;1.77;0.90;;;11.20;34.30;;;;;;5097277;28;20411;-67
2021/03/18 10:53:39;;;;;;;1.70;1.02;;;11.30;33.60;;;;;;5096355;28;20056;-68
2021/03/18 10:56:12;;;;;;;1.42;0.90;;;11.40;32.60;;;;;;5094340;28;20178;-67
2021/03/18 10:58:38;;;;;;;2.00;1.20;;;11.50;32.00;;;;;;5109218;28;20024;-68
2021/03/18 11:01:10;;;;;;;1.58;1.08;;;11.60;32.50;;;;;;5115898;28;20019;-69
2021/03/18 11:03:39;;;;;;;1.75;0.90;;;11.70;31.50;;;;;;5116476;28;20073;-68
2021/03/18 11:06:18;;;;;;;1.50;1.00;;;11.80;32.40;;;;;;5116618;28;20106;-68
2021/03/18 11:08:46;;;;;;;2.67;1.40;;;11.90;32.30;;;;;;5116470;28;20020;-68
2021/03/18 11:11:25;;;;;;;2.22;1.40;;;12.00;32.10;;;;;;5116143;28;20077;-68
2021/03/18 11:13:51;;;;;;;6.22;1.10;;;12.10;30.40;;;;;;5116265;28;20035;-68
2021/03/18 11:16:21;;;;;;;1.52;1.10;;;12.20;31.10;;;;;;5116345;28;20024;-68
2021/03/18 11:18:48;;;;;;;1.75;1.10;;;12.20;30.00;;;;;;5116498;28;20027;-68
2021/03/18 11:21:21;;;;;;;1.27;0.90;;;12.30;30.80;;;;;;5116397;28;20445;-69
2021/03/18 11:23:48;;;;;;;;;;;12.40;32.10;;;;;;5117090;28;20035;-68
2021/03/18 11:26:14;;;;;;;2.92;0.85;;;12.50;32.70;;;;;;5116630;28;20326;-68
2021/03/18 11:28:57;;;;;;;2.13;0.90;;;12.70;32.10;;;;;;5116243;28;20511;-68
2021/03/18 11:31:27;;;;;;;1.80;0.68;;;12.90;32.50;;;;;;5114709;28;20047;-68
2021/03/18 11:33:53;;;;;;;1.55;0.80;;;13.10;31.40;;;;;;5115137;28;20026;-67
2021/03/18 11:36:20;;;;;;;2.63;1.10;;;13.20;29.00;;;;;;5115639;28;20023;-67
2021/03/18 11:38:46;;;;;;;2.53;1.00;;;13.30;29.50;;;;;;5115381;28;20023;-67
2021/03/18 11:41:13;;;;;;;1.08;0.90;;;13.30;28.80;;;;;;5115727;28;20047;-67
2021/03/18 11:43:39;;;;;;;3.78;0.90;;;13.30;29.50;;;;;;5115483;28;20098;-67
2021/03/18 11:46:05;;;;;;;1.65;1.10;;;13.20;29.70;;;;;;5115506;28;20076;-67
2021/03/18 11:48:31;;;;;;;1.23;0.90;;;13.20;29.00;;;;;;5115203;28;20023;-67
2021/03/18 11:50:57;;;;;;;2.30;1.00;;;13.00;27.60;;;;;;5114959;28;20023;-67
2021/03/18 11:53:23;;;;;;;2.83;1.00;;;12.80;28.70;;;;;;5115145;28;20448;-67
2021/03/18 11:55:49;;;;;;;1.80;1.20;;;12.60;30.00;;;;;;5115000;28;20015;-67
2021/03/18 11:58:15;;;;;;;1.02;0.82;;;12.40;29.90;;;;;;5115020;28;20028;-67
2021/03/18 12:00:41;;;;;;;2.50;1.02;;;12.30;30.40;;;;;;5114348;28;20020;-67
2021/03/18 12:03:09;;;;;;;1.08;0.80;;;12.20;30.80;;;;;;5115203;28;20028;-66
2021/03/18 12:05:37;;;;;;;1.48;0.85;;;12.20;31.20;;;;;;5114795;28;20493;-67
2021/03/18 12:08:04;;;;;;;1.75;1.00;;;12.20;31.70;;;;;;5126617;27;20114;-67
2021/03/18 12:10:30;;;;;;;1.33;0.70;;;12.10;31.30;;;;;;5122553;27;20034;-67
2021/03/18 12:12:56;;;;;;;1.63;0.90;;;12.10;31.50;;;;;;5114500;28;20057;-67
2021/03/18 12:15:22;;;;;;;2.08;1.00;;;12.00;31.30;;;;;;5114743;28;20024;-67
2021/03/18 12:17:48;;;;;;;1.67;0.93;;;12.00;30.90;;;;;;5114833;28;20032;-66
2021/03/18 12:20:17;;;;;;;1.20;0.80;;;11.90;30.80;;;;;;5114833;28;20035;-67
2021/03/18 12:22:46;;;;;;;3.28;0.90;;;11.90;31.20;;;;;;5114668;28;20023;-68
2021/03/18 12:25:14;;;;;;;1.73;0.88;;;11.90;32.40;;;;;;5114566;28;20020;-67
2021/03/18 12:27:40;;;;;;;1.00;0.80;;;12.00;30.20;;;;;;5114560;28;20028;-67
2021/03/18 12:30:08;;;;;;;2.50;0.80;;;12.10;33.00;;;;;;5114515;28;20464;-70
2021/03/18 12:32:34;;;;;;;2.13;0.98;;;12.30;33.80;;;;;;5112816;28;20051;-69
2021/03/18 12:35:00;;;;;;;2.70;0.90;;;12.50;30.60;;;;;;5111099;28;20110;-69
2021/03/18 12:37:26;;;;;;;2.13;1.52;;;12.70;30.90;;;;;;5111317;28;20106;-69
2021/03/18 12:39:52;;;;;;;2.50;1.02;;;12.80;29.90;;;;;;5110791;28;20020;-67
2021/03/18 12:42:17;;;;;;;1.48;0.98;;;12.90;30.50;;;;;;5111437;28;20584;-67
2021/03/18 12:44:43;;;;;;;1.50;0.90;;;12.90;29.40;;;;;;5113347;28;20076;-67
2021/03/18 12:47:10;;;;;;;1.48;0.88;;;12.80;29.60;;;;;;5113838;28;20031;-67
2021/03/18 12:49:36;;;;;;;1.85;0.80;;;12.70;29.90;;;;;;5113981;28;20068;-67
2021/03/18 12:52:03;;;;;;;2.33;0.90;;;12.60;29.20;;;;;;5114315;28;20083;-67
2021/03/18 12:54:29;;;;;;;1.23;0.70;;;12.40;30.30;;;;;;5114032;28;20019;-74
2021/03/18 12:56:55;;;;;;;1.63;0.90;;;12.30;29.40;;;;;;5114138;27;20023;-67
2021/03/18 12:59:21;;;;;;;3.20;1.20;;;12.20;30.00;;;;;;5113717;28;20399;-67
2021/03/18 13:01:47;;;;;;;2.97;1.00;;;12.10;29.70;;;;;;5113980;28;20027;-67